createdAt,value
2018-10-21T00:00:11.532Z,18.40
2018-10-21T00:02:39.606Z,18.30
2018-10-21T00:05:08.765Z,18.30
2018-10-21T00:07:36.846Z,18.30
2018-10-21T00:10:06.170Z,18.30
2018-10-21T00:12:34.246Z,18.30
2018-10-21T00:15:02.428Z,18.30
2018-10-21T00:17:30.410Z,18.30
2018-10-21T00:19:58.574Z,18.30
2018-10-21T00:22:26.722Z,18.30
2018-10-21T00:24:54.823Z,18.30
2018-10-21T00:27:22.883Z,18.30
2018-10-21T00:29:50.954Z,18.30
2018-10-21T00:32:19.101Z,18.20
2018-10-21T00:34:47.507Z,18.20
2018-10-21T00:37:15.575Z,18.20
2018-10-21T00:39:43.682Z,18.20
2018-10-21T00:42:11.762Z,18.20
2018-10-21T00:44:40.018Z,18.20
2018-10-21T00:47:08.210Z,18.20
2018-10-21T00:49:36.342Z,18.20
2018-10-21T00:52:04.590Z,18.20
2018-10-21T00:54:32.686Z,18.20
2018-10-21T00:57:01.786Z,18.20
2018-10-21T00:59:29.822Z,18.10
2018-10-21T01:01:57.918Z,18.10
2018-10-21T01:04:26.010Z,18.10
2018-10-21T01:06:54.083Z,18.10
2018-10-21T01:09:22.186Z,18.10
2018-10-21T01:11:50.505Z,18.10
2018-10-21T01:14:18.618Z,18.10
2018-10-21T01:16:46.711Z,18.10
2018-10-21T01:19:14.782Z,18.10
2018-10-21T01:21:42.972Z,18.10
2018-10-21T01:24:11.206Z,18.10
2018-10-21T01:26:39.310Z,18.10
2018-10-21T01:29:07.388Z,18.10
2018-10-21T01:31:35.489Z,18.00
2018-10-21T01:34:03.695Z,18.00
2018-10-21T01:36:31.984Z,18.00
2018-10-21T01:39:00.001Z,18.00
2018-10-21T01:41:28.086Z,18.00
2018-10-21T01:43:56.202Z,18.00
2018-10-21T01:46:24.304Z,18.00
2018-10-21T01:48:52.506Z,18.00
2018-10-21T01:51:20.677Z,17.90
2018-10-21T01:53:48.796Z,17.90
2018-10-21T01:56:16.930Z,17.90
2018-10-21T01:58:45.028Z,17.90
2018-10-21T02:01:13.158Z,17.90
2018-10-21T02:03:41.383Z,17.90
2018-10-21T02:06:09.727Z,17.90
2018-10-21T02:11:13.431Z,17.90
2018-10-21T02:13:42.227Z,17.80
2018-10-21T02:16:10.684Z,17.80
2018-10-21T02:18:39.052Z,17.80
2018-10-21T02:21:07.324Z,17.80
2018-10-21T02:23:35.596Z,17.80
2018-10-21T02:26:03.850Z,17.80
2018-10-21T02:28:31.918Z,17.80
2018-10-21T02:31:00.071Z,17.80
2018-10-21T02:33:28.362Z,17.80
2018-10-21T02:35:57.354Z,17.80
2018-10-21T02:38:25.587Z,17.80
2018-10-21T02:41:33.230Z,17.80
2018-10-21T02:44:02.017Z,17.80
2018-10-21T02:46:30.865Z,17.70
2018-10-21T02:49:01.182Z,17.80
2018-10-21T02:51:29.429Z,17.70
2018-10-21T02:53:57.610Z,17.70
2018-10-21T02:56:26.145Z,17.70
2018-10-21T03:01:31.594Z,17.70
2018-10-21T03:06:35.099Z,17.70
2018-10-21T03:09:05.096Z,17.70
2018-10-21T03:11:33.163Z,17.70
2018-10-21T03:14:01.427Z,17.70
2018-10-21T03:16:29.528Z,17.70
2018-10-21T03:18:57.858Z,17.70
2018-10-21T03:21:25.978Z,17.70
2018-10-21T03:23:54.234Z,17.70
2018-10-21T03:26:22.451Z,17.70
2018-10-21T03:28:50.959Z,17.70
2018-10-21T03:31:19.180Z,17.70
2018-10-21T03:33:47.523Z,17.70
2018-10-21T03:36:15.879Z,17.70
2018-10-21T03:38:44.090Z,17.70
2018-10-21T03:41:12.231Z,17.70
2018-10-21T03:46:16.143Z,17.70
2018-10-21T03:48:44.311Z,17.70
2018-10-21T03:51:13.347Z,17.70
2018-10-21T03:53:41.674Z,17.70
2018-10-21T03:56:09.804Z,17.70
2018-10-21T03:58:37.988Z,17.70
2018-10-21T04:01:06.675Z,17.70
2018-10-21T04:03:34.879Z,17.70
2018-10-21T04:06:03.070Z,17.70
2018-10-21T04:08:31.223Z,17.70
2018-10-21T04:10:59.494Z,17.70
2018-10-21T04:13:28.526Z,17.70
2018-10-21T04:15:56.717Z,17.70
2018-10-21T04:18:25.138Z,17.70
2018-10-21T04:20:53.730Z,17.70
2018-10-21T04:23:22.150Z,17.70
2018-10-21T04:25:50.867Z,17.70
2018-10-21T04:28:19.336Z,17.70
2018-10-21T04:30:47.605Z,17.70
2018-10-21T04:33:52.394Z,17.70
2018-10-21T04:36:27.290Z,17.70
2018-10-21T04:40:12.157Z,17.70
2018-10-21T04:42:40.610Z,17.70
2018-10-21T04:45:09.828Z,17.70
2018-10-21T04:47:38.152Z,17.70
2018-10-21T04:50:07.619Z,17.70
2018-10-21T04:52:35.767Z,17.70
2018-10-21T04:55:07.095Z,17.70
2018-10-21T04:57:36.962Z,17.70
2018-10-21T05:00:09.434Z,17.70
2018-10-21T05:02:37.794Z,17.70
2018-10-21T05:05:06.974Z,17.70
2018-10-21T05:07:35.324Z,17.70
2018-10-21T05:10:03.635Z,17.70
2018-10-21T05:12:31.666Z,17.70
2018-10-21T05:17:36.646Z,17.70
2018-10-21T05:20:04.786Z,17.70
2018-10-21T05:22:32.854Z,17.70
2018-10-21T05:25:00.938Z,17.70
2018-10-21T05:27:29.094Z,17.70
2018-10-21T05:29:57.255Z,17.70
2018-10-21T05:32:25.306Z,17.70
2018-10-21T05:34:53.418Z,17.70
2018-10-21T05:37:21.494Z,17.70
2018-10-21T05:39:49.656Z,17.70
2018-10-21T05:42:17.758Z,17.70
2018-10-21T05:44:45.890Z,17.70
2018-10-21T05:47:14.014Z,17.70
2018-10-21T05:49:42.099Z,17.70
2018-10-21T05:52:10.263Z,17.70
2018-10-21T05:57:17.824Z,17.70
2018-10-21T05:59:46.004Z,17.70
2018-10-21T06:02:14.199Z,17.70
2018-10-21T06:04:42.355Z,17.70
2018-10-21T06:07:10.447Z,17.70
2018-10-21T06:09:38.535Z,17.70
2018-10-21T06:12:06.669Z,17.70
2018-10-21T06:14:34.771Z,17.70
2018-10-21T06:17:10.319Z,17.70
2018-10-21T06:19:42.480Z,17.70
2018-10-21T06:22:10.685Z,17.70
2018-10-21T06:24:38.862Z,17.70
2018-10-21T06:27:06.958Z,17.70
2018-10-21T06:29:35.139Z,17.70
2018-10-21T06:32:03.203Z,17.70
2018-10-21T06:34:31.307Z,17.70
2018-10-21T06:36:59.559Z,17.70
2018-10-21T06:39:27.670Z,17.70
2018-10-21T06:41:55.827Z,17.70
2018-10-21T06:44:23.958Z,17.70
2018-10-21T06:46:52.148Z,17.70
2018-10-21T06:49:20.202Z,17.80
2018-10-21T06:51:48.390Z,18.10
2018-10-21T06:54:16.473Z,18.40
2018-10-21T06:56:44.669Z,18.70
2018-10-21T06:59:12.668Z,19.10
2018-10-21T07:01:40.800Z,19.40
2018-10-21T07:04:08.984Z,19.80
2018-10-21T07:06:37.075Z,20.10
2018-10-21T07:09:06.198Z,20.40
2018-10-21T07:11:34.311Z,20.50
2018-10-21T07:14:02.455Z,20.60
2018-10-21T07:16:30.586Z,20.90
2018-10-21T07:18:58.593Z,21.30
2018-10-21T07:21:26.752Z,21.40
2018-10-21T07:23:54.802Z,21.40
2018-10-21T07:26:22.939Z,21.70
2018-10-21T07:28:51.256Z,21.80
2018-10-21T07:31:19.325Z,21.80
2018-10-21T07:33:47.419Z,21.80
2018-10-21T07:36:15.590Z,22.00
2018-10-21T07:38:43.601Z,22.20
2018-10-21T07:41:11.704Z,22.20
2018-10-21T07:43:39.873Z,22.10
2018-10-21T07:46:08.029Z,22.00
2018-10-21T07:48:36.074Z,21.90
2018-10-21T07:51:04.202Z,22.10
2018-10-21T07:53:32.281Z,22.30
2018-10-21T07:56:00.378Z,22.30
2018-10-21T07:58:28.446Z,22.30
2018-10-21T08:00:56.581Z,22.10
2018-10-21T08:03:24.826Z,22.00
2018-10-21T08:06:18.039Z,22.10
2018-10-21T08:08:46.192Z,22.30
2018-10-21T08:11:14.264Z,22.30
2018-10-21T08:13:42.362Z,22.20
2018-10-21T08:16:11.028Z,22.20
2018-10-21T08:18:39.206Z,22.20
2018-10-21T08:21:07.472Z,22.30
2018-10-21T08:23:35.567Z,22.50
2018-10-21T08:26:04.266Z,22.40
2018-10-21T08:28:32.380Z,22.40
2018-10-21T08:31:00.470Z,22.40
2018-10-21T08:33:28.619Z,22.30
2018-10-21T08:35:56.728Z,22.30
2018-10-21T08:38:24.842Z,22.50
2018-10-21T08:40:52.990Z,22.40
2018-10-21T08:43:21.058Z,22.40
2018-10-21T08:45:49.162Z,22.30
2018-10-21T08:48:17.234Z,22.30
2018-10-21T08:50:45.390Z,22.30
2018-10-21T08:53:13.543Z,22.40
2018-10-21T08:55:41.632Z,22.40
2018-10-21T08:58:09.743Z,22.40
2018-10-21T09:00:37.802Z,22.40
2018-10-21T09:03:05.891Z,22.30
2018-10-21T09:05:34.044Z,22.30
2018-10-21T09:08:02.162Z,22.40
2018-10-21T09:10:30.349Z,22.50
2018-10-21T09:12:58.444Z,22.40
2018-10-21T09:15:26.577Z,22.40
2018-10-21T09:17:54.653Z,22.40
2018-10-21T09:20:22.802Z,22.30
2018-10-21T09:22:51.542Z,22.50
2018-10-21T09:25:19.716Z,22.50
2018-10-21T09:27:47.911Z,22.50
2018-10-21T09:30:16.637Z,22.50
2018-10-21T09:32:44.764Z,22.40
2018-10-21T09:35:15.128Z,22.40
2018-10-21T09:37:43.510Z,22.40
2018-10-21T09:40:13.310Z,22.30
2018-10-21T09:42:41.485Z,22.20
2018-10-21T09:45:11.131Z,22.20
2018-10-21T09:47:39.258Z,22.20
2018-10-21T09:50:07.531Z,22.40
2018-10-21T09:52:35.618Z,22.50
2018-10-21T09:55:03.891Z,22.50
2018-10-21T09:57:32.081Z,22.40
2018-10-21T10:00:00.127Z,22.40
2018-10-21T10:02:33.501Z,22.30
2018-10-21T10:05:01.618Z,22.20
2018-10-21T10:07:30.307Z,22.20
2018-10-21T10:09:58.436Z,22.20
2018-10-21T10:12:26.534Z,22.20
2018-10-21T10:14:54.675Z,22.20
2018-10-21T10:17:22.764Z,22.20
2018-10-21T10:19:51.414Z,22.30
2018-10-21T10:22:19.544Z,22.30
2018-10-21T10:24:47.651Z,22.30
2018-10-21T10:27:15.706Z,22.30
2018-10-21T10:29:43.809Z,22.30
2018-10-21T10:32:12.170Z,22.30
2018-10-21T10:34:40.603Z,22.30
2018-10-21T10:37:08.827Z,22.40
2018-10-21T10:39:39.792Z,22.40
2018-10-21T10:42:08.144Z,22.50
2018-10-21T10:44:36.459Z,22.50
2018-10-21T10:47:04.750Z,22.60
2018-10-21T10:49:33.151Z,22.60
2018-10-21T10:52:18.749Z,22.60
2018-10-21T10:54:48.435Z,22.60
2018-10-21T10:57:17.046Z,22.60
2018-10-21T10:59:45.251Z,22.60
2018-10-21T11:02:13.319Z,22.50
2018-10-21T11:04:41.415Z,22.50
2018-10-21T11:07:09.575Z,22.50
2018-10-21T11:09:37.805Z,22.50
2018-10-21T11:12:05.966Z,22.50
2018-10-21T11:14:34.096Z,22.60
2018-10-21T11:17:02.127Z,22.60
2018-10-21T11:19:30.222Z,22.50
2018-10-21T11:21:58.386Z,22.40
2018-10-21T11:24:26.408Z,22.40
2018-10-21T11:26:54.503Z,22.50
2018-10-21T11:29:22.562Z,22.70
2018-10-21T11:31:50.651Z,22.70
2018-10-21T11:34:18.802Z,22.70
2018-10-21T11:36:46.995Z,22.60
2018-10-21T11:39:14.988Z,22.60
2018-10-21T11:41:43.062Z,22.70
2018-10-21T11:44:11.186Z,22.70
2018-10-21T11:46:39.264Z,22.70
2018-10-21T11:49:07.332Z,22.70
2018-10-21T11:51:35.406Z,22.70
2018-10-21T11:54:03.558Z,22.70
2018-10-21T11:56:31.675Z,22.70
2018-10-21T11:58:59.745Z,22.70
2018-10-21T12:01:28.661Z,22.60
2018-10-21T12:03:57.378Z,22.60
2018-10-21T12:06:25.607Z,22.60
2018-10-21T12:08:53.778Z,22.60
2018-10-21T12:11:22.023Z,22.60
2018-10-21T12:17:22.287Z,22.60
2018-10-21T12:19:52.225Z,22.60
2018-10-21T12:22:22.789Z,22.60
2018-10-21T12:35:03.967Z,22.70
2018-10-21T12:37:32.054Z,22.70
2018-10-21T12:40:00.328Z,22.70
2018-10-21T12:42:52.228Z,22.70
2018-10-21T12:45:20.356Z,22.80
2018-10-21T12:47:48.532Z,22.80
2018-10-21T12:50:17.493Z,22.80
2018-10-21T12:56:18.732Z,22.80
2018-10-21T13:06:30.572Z,22.80
2018-10-21T13:08:59.991Z,22.80
2018-10-21T13:11:28.947Z,22.80
2018-10-21T13:14:03.970Z,22.80
2018-10-21T13:16:53.700Z,22.80
2018-10-21T13:19:32.432Z,22.80
2018-10-21T13:22:00.543Z,22.90
2018-10-21T13:24:28.710Z,22.90
2018-10-21T13:26:56.830Z,22.90
2018-10-21T13:29:25.015Z,23.00
2018-10-21T13:31:53.292Z,23.00
2018-10-21T13:34:21.392Z,23.00
2018-10-21T13:36:49.651Z,23.00
2018-10-21T13:39:17.966Z,23.00
2018-10-21T13:41:46.047Z,23.10
2018-10-21T13:44:14.215Z,23.10
2018-10-21T13:46:42.647Z,23.10
2018-10-21T13:49:11.015Z,23.10
2018-10-21T13:51:39.130Z,23.00
2018-10-21T13:54:07.164Z,23.00
2018-10-21T13:56:35.313Z,22.90
2018-10-21T13:59:03.502Z,22.90
2018-10-21T14:01:31.902Z,22.90
2018-10-21T14:03:59.978Z,22.90
2018-10-21T14:06:28.055Z,22.90
2018-10-21T14:08:56.175Z,22.90
2018-10-21T14:11:24.226Z,22.90
2018-10-21T14:13:52.335Z,22.90
2018-10-21T14:16:20.604Z,22.80
2018-10-21T14:18:48.622Z,22.80
2018-10-21T14:21:16.935Z,22.70
2018-10-21T14:23:46.013Z,22.70
2018-10-21T14:26:14.118Z,22.70
2018-10-21T14:28:42.327Z,22.70
2018-10-21T14:31:10.424Z,22.70
2018-10-21T14:33:38.714Z,22.70
2018-10-21T14:36:06.894Z,22.60
2018-10-21T14:38:36.189Z,22.60
2018-10-21T14:41:26.023Z,22.60
2018-10-21T14:43:54.835Z,22.60
2018-10-21T14:46:39.651Z,22.50
2018-10-21T14:49:09.176Z,22.50
2018-10-21T14:51:39.479Z,22.40
2018-10-21T14:59:21.051Z,22.40
2018-10-21T15:01:49.384Z,22.40
2018-10-21T15:04:17.591Z,22.30
2018-10-21T15:06:45.818Z,22.30
2018-10-21T15:09:16.618Z,22.30
2018-10-21T15:11:45.783Z,22.20
2018-10-21T15:14:14.212Z,22.30
2018-10-21T15:16:42.308Z,22.20
2018-10-21T15:19:10.466Z,22.20
2018-10-21T15:21:38.686Z,22.20
2018-10-21T15:24:08.210Z,22.20
2018-10-21T15:26:37.174Z,22.20
2018-10-21T15:29:05.799Z,22.20
2018-10-21T15:31:33.882Z,22.20
2018-10-21T15:34:02.014Z,22.10
2018-10-21T15:36:30.110Z,22.10
2018-10-21T15:38:58.327Z,22.10
2018-10-21T15:41:26.568Z,22.10
2018-10-21T15:43:55.712Z,22.00
2018-10-21T15:46:24.340Z,22.00
2018-10-21T15:48:52.901Z,22.00
2018-10-21T15:51:21.808Z,22.00
2018-10-21T15:53:50.000Z,22.00
2018-10-21T15:56:18.207Z,21.90
2018-10-21T15:58:46.271Z,21.90
2018-10-21T16:01:14.875Z,21.90
2018-10-21T16:03:43.028Z,21.80
2018-10-21T16:06:11.543Z,21.80
2018-10-21T16:08:40.825Z,21.80
2018-10-21T16:11:10.097Z,21.70
2018-10-21T16:13:39.031Z,21.70
2018-10-21T16:16:07.541Z,21.70
2018-10-21T16:18:44.220Z,21.60
2018-10-21T16:21:18.953Z,21.60
2018-10-21T16:23:47.218Z,21.60
2018-10-21T16:26:15.382Z,21.60
2018-10-21T16:28:43.530Z,21.50
2018-10-21T16:31:11.672Z,21.50
2018-10-21T16:33:39.783Z,21.50
2018-10-21T16:36:07.894Z,21.50
2018-10-21T16:38:36.154Z,21.50
2018-10-21T16:41:04.922Z,21.40
2018-10-21T16:43:33.070Z,21.40
2018-10-21T16:46:01.212Z,21.40
2018-10-21T16:48:29.342Z,21.40
2018-10-21T16:50:57.508Z,21.40
2018-10-21T16:53:25.926Z,21.40
2018-10-21T16:55:53.866Z,21.30
2018-10-21T16:58:22.239Z,21.30
2018-10-21T17:00:50.690Z,21.30
2018-10-21T17:03:19.076Z,21.40
2018-10-21T17:05:47.136Z,21.50
2018-10-21T17:08:15.118Z,21.60
2018-10-21T17:10:43.580Z,21.60
2018-10-21T17:13:11.415Z,21.60
2018-10-21T17:15:39.408Z,21.60
2018-10-21T17:18:07.567Z,21.60
2018-10-21T17:20:35.690Z,21.60
2018-10-21T17:23:03.778Z,21.60
2018-10-21T17:25:31.882Z,21.50
2018-10-21T17:27:59.985Z,21.60
2018-10-21T17:30:28.050Z,21.60
2018-10-21T17:32:56.081Z,21.60
2018-10-21T17:35:24.138Z,21.60
2018-10-21T17:37:52.265Z,21.60
2018-10-21T17:40:20.367Z,21.70
2018-10-21T17:42:48.418Z,21.70
2018-10-21T17:45:16.482Z,21.60
2018-10-21T17:47:44.536Z,21.60
2018-10-21T17:50:13.875Z,21.60
2018-10-21T17:52:42.443Z,21.70
2018-10-21T17:55:10.643Z,21.70
2018-10-21T17:57:38.702Z,21.70
2018-10-21T18:00:09.384Z,21.60
2018-10-21T18:02:37.476Z,21.70
2018-10-21T18:05:07.246Z,21.60
2018-10-21T18:07:35.394Z,21.60
2018-10-21T18:10:03.471Z,21.60
2018-10-21T18:12:31.513Z,21.60
2018-10-21T18:14:59.578Z,21.60
2018-10-21T18:17:27.642Z,21.60
2018-10-21T18:19:55.760Z,21.60
2018-10-21T18:22:24.008Z,21.60
2018-10-21T18:24:52.067Z,21.60
2018-10-21T18:27:20.695Z,21.60
2018-10-21T18:29:48.772Z,21.60
2018-10-21T18:32:16.838Z,21.60
2018-10-21T18:34:45.282Z,21.60
2018-10-21T18:37:13.540Z,21.60
2018-10-21T18:39:41.442Z,21.60
2018-10-21T18:42:09.503Z,21.60
2018-10-21T18:44:37.626Z,21.70
2018-10-21T18:47:06.100Z,21.70
2018-10-21T18:49:34.638Z,21.70
2018-10-21T18:52:02.804Z,21.70
2018-10-21T18:54:30.868Z,21.60
2018-10-21T18:56:58.937Z,21.60
2018-10-21T18:59:27.131Z,21.60
2018-10-21T19:01:55.186Z,21.60
2018-10-21T19:04:23.276Z,21.60
2018-10-21T19:06:51.431Z,21.50
2018-10-21T19:09:19.607Z,21.50
2018-10-21T19:11:47.740Z,21.50
2018-10-21T19:14:15.886Z,21.50
2018-10-21T19:16:43.986Z,21.50
2018-10-21T19:19:12.141Z,21.40
2018-10-21T19:21:40.330Z,21.40
2018-10-21T19:24:08.434Z,21.40
2018-10-21T19:26:36.519Z,21.40
2018-10-21T19:29:04.734Z,21.40
2018-10-21T19:31:32.848Z,21.40
2018-10-21T19:34:00.991Z,21.40
2018-10-21T19:36:28.935Z,21.40
2018-10-21T19:38:56.990Z,21.30
2018-10-21T19:41:25.062Z,21.30
2018-10-21T19:43:53.146Z,21.30
2018-10-21T19:46:21.323Z,21.30
2018-10-21T19:48:50.171Z,21.30
2018-10-21T19:51:18.254Z,21.30
2018-10-21T19:53:46.367Z,21.30
2018-10-21T19:56:14.443Z,21.30
2018-10-21T19:58:42.560Z,21.30
2018-10-21T20:01:10.741Z,21.30
2018-10-21T20:03:38.690Z,21.20
2018-10-21T20:06:06.798Z,21.20
2018-10-21T20:08:34.865Z,21.20
2018-10-21T20:11:02.978Z,21.20
2018-10-21T20:13:31.132Z,21.20
2018-10-21T20:15:59.209Z,21.20
2018-10-21T20:18:28.022Z,21.20
2018-10-21T20:20:56.094Z,21.20
2018-10-21T20:23:24.150Z,21.20
2018-10-21T20:25:52.205Z,21.20
2018-10-21T20:28:20.282Z,21.20
2018-10-21T20:30:48.398Z,21.20
2018-10-21T20:33:16.521Z,21.20
2018-10-21T20:35:44.511Z,21.10
2018-10-21T20:38:12.627Z,21.10
2018-10-21T20:40:40.618Z,21.10
2018-10-21T20:43:08.676Z,21.10
2018-10-21T20:45:36.726Z,21.10
2018-10-21T20:48:04.982Z,21.10
2018-10-21T20:50:32.977Z,21.00
2018-10-21T20:53:01.011Z,21.00
2018-10-21T20:55:29.058Z,21.00
2018-10-21T20:57:57.188Z,21.00
2018-10-21T21:00:25.169Z,21.00
2018-10-21T21:02:53.223Z,21.00
2018-10-21T21:05:21.272Z,21.00
2018-10-21T21:07:49.396Z,21.00
2018-10-21T21:10:17.496Z,21.00
2018-10-21T21:12:45.613Z,21.00
2018-10-21T21:15:13.663Z,21.00
2018-10-21T21:17:41.785Z,21.00
2018-10-21T21:20:10.193Z,21.00
2018-10-21T21:22:38.450Z,21.00
2018-10-21T21:25:06.855Z,21.00
2018-10-21T21:27:35.143Z,20.90
2018-10-21T21:30:03.231Z,20.90
2018-10-21T21:32:31.338Z,20.90
2018-10-21T21:34:59.354Z,20.90
2018-10-21T21:37:27.503Z,20.90
2018-10-21T21:39:55.861Z,20.90
2018-10-21T21:42:23.899Z,20.90
2018-10-21T21:44:51.958Z,20.90
2018-10-21T21:47:20.034Z,20.90
2018-10-21T21:49:48.131Z,20.90
2018-10-21T21:52:16.307Z,20.80
2018-10-21T21:54:44.302Z,20.80
2018-10-21T21:57:12.358Z,20.80
2018-10-21T21:59:40.430Z,20.80
2018-10-21T22:02:08.544Z,20.80
2018-10-21T22:04:36.778Z,20.80
2018-10-21T22:07:05.547Z,20.80
2018-10-21T22:09:33.612Z,20.80
2018-10-21T22:12:01.782Z,20.80
2018-10-21T22:14:30.198Z,20.80
2018-10-21T22:16:58.338Z,20.80
2018-10-21T22:19:26.462Z,20.80
2018-10-21T22:21:54.576Z,20.80
2018-10-21T22:24:22.610Z,20.80
2018-10-21T22:26:50.685Z,20.80
2018-10-21T22:29:18.810Z,20.80
2018-10-21T22:31:46.938Z,20.80
2018-10-21T22:34:15.051Z,20.70
2018-10-21T22:36:43.102Z,20.80
2018-10-21T22:39:11.195Z,20.70
2018-10-21T22:41:39.257Z,20.70
2018-10-21T22:44:07.378Z,20.70
2018-10-21T22:46:35.472Z,20.70
2018-10-21T22:49:03.499Z,20.70
2018-10-21T22:51:31.558Z,20.70
2018-10-21T22:53:59.665Z,20.70
2018-10-21T22:56:27.682Z,20.70
2018-10-21T22:58:55.774Z,20.70
2018-10-21T23:01:23.862Z,20.70
2018-10-21T23:03:51.962Z,20.70
2018-10-21T23:06:20.250Z,20.70
2018-10-21T23:08:48.206Z,20.70
2018-10-21T23:11:16.254Z,20.70
2018-10-21T23:13:44.342Z,20.60
2018-10-21T23:16:12.679Z,20.60
2018-10-21T23:18:40.803Z,20.60
2018-10-21T23:21:08.835Z,20.60
2018-10-21T23:23:36.903Z,20.60
2018-10-21T23:26:05.046Z,20.60
2018-10-21T23:28:33.158Z,20.60
2018-10-21T23:31:01.270Z,20.60
2018-10-21T23:33:29.382Z,20.60
2018-10-21T23:35:57.513Z,20.60
2018-10-21T23:38:25.583Z,20.50
2018-10-21T23:40:53.879Z,20.60
2018-10-21T23:43:21.979Z,20.50
2018-10-21T23:45:50.144Z,20.50
2018-10-21T23:48:18.313Z,20.50
2018-10-21T23:50:46.282Z,20.50
2018-10-21T23:53:14.342Z,20.50
2018-10-21T23:55:42.406Z,20.50
2018-10-21T23:58:10.563Z,20.40
